createdAt,value
2019-01-08T00:01:47.244Z,101363.43
2019-01-08T00:04:16.598Z,101371.84
2019-01-08T00:06:45.891Z,101358.63
2019-01-08T00:09:15.232Z,101363.03
2019-01-08T00:11:44.545Z,101347.63
2019-01-08T00:14:13.901Z,101345.91
2019-01-08T00:16:43.193Z,101347.21
2019-01-08T00:19:12.482Z,101346.38
2019-01-08T00:21:41.773Z,101331.19
2019-01-08T00:24:11.089Z,101331.19
2019-01-08T00:26:40.393Z,101335.19
2019-01-08T00:29:09.702Z,101326.44
2019-01-08T00:31:38.984Z,101326.89
2019-01-08T00:34:08.311Z,101305.94
2019-01-08T00:36:37.677Z,101299.80
2019-01-08T00:39:07.729Z,101300.73
2019-01-08T00:41:37.079Z,101311.37
2019-01-08T00:44:06.411Z,101312.73
2019-01-08T00:46:35.751Z,101312.33
2019-01-08T00:49:05.117Z,101323.34
2019-01-08T00:51:34.411Z,101305.47
2019-01-08T00:54:03.710Z,101300.20
2019-01-08T00:56:33.015Z,101309.52
2019-01-08T00:59:02.309Z,101286.73
2019-01-08T01:01:31.670Z,101307.45
2019-01-08T01:04:01.017Z,101294.23
2019-01-08T01:06:30.329Z,101305.77
2019-01-08T01:08:59.700Z,101289.99
2019-01-08T01:11:28.987Z,101288.22
2019-01-08T01:13:58.267Z,101290.94
2019-01-08T01:16:27.536Z,101278.59
2019-01-08T01:18:56.832Z,101282.55
2019-01-08T01:21:26.117Z,101279.52
2019-01-08T01:23:55.381Z,101273.84
2019-01-08T01:26:24.697Z,101265.09
2019-01-08T01:28:59.903Z,101272.98
2019-01-08T01:31:23.290Z,101265.15
2019-01-08T01:33:52.602Z,101259.42
2019-01-08T01:36:21.884Z,101256.40
2019-01-08T01:38:51.161Z,101251.16
2019-01-08T01:41:20.444Z,101253.38
2019-01-08T01:43:49.797Z,101256.89
2019-01-08T01:46:19.072Z,101241.91
2019-01-08T01:48:48.393Z,101242.38
2019-01-08T01:51:17.686Z,101241.93
2019-01-08T01:53:46.955Z,101230.03
2019-01-08T01:56:16.222Z,101237.06
2019-01-08T01:58:45.615Z,101243.69
2019-01-08T02:01:14.867Z,101233.92
2019-01-08T02:03:44.182Z,101218.88
2019-01-08T02:06:13.403Z,101217.27
2019-01-08T02:08:42.723Z,101232.59
2019-01-08T02:11:12.003Z,101221.62
2019-01-08T02:13:41.403Z,101210.58
2019-01-08T02:16:10.645Z,101207.14
2019-01-08T02:18:39.965Z,101206.68
2019-01-08T02:21:09.240Z,101203.54
2019-01-08T02:23:38.503Z,101191.23
2019-01-08T02:26:07.813Z,101195.58
2019-01-08T02:28:37.095Z,101180.70
2019-01-08T02:31:06.418Z,101177.96
2019-01-08T02:33:35.678Z,101178.43
2019-01-08T02:36:04.962Z,101169.22
2019-01-08T02:38:34.743Z,101166.92
2019-01-08T02:41:06.837Z,101156.84
2019-01-08T02:43:36.142Z,101149.42
2019-01-08T02:46:05.567Z,101151.17
2019-01-08T02:48:34.673Z,101132.77
2019-01-08T02:51:03.973Z,101138.09
2019-01-08T02:53:33.359Z,101144.27
2019-01-08T02:56:02.703Z,101131.51
2019-01-08T02:58:32.025Z,101131.95
2019-01-08T03:01:01.347Z,101121.05
2019-01-08T03:03:30.695Z,101112.76
2019-01-08T03:05:59.997Z,101114.98
2019-01-08T03:08:29.281Z,101109.37
2019-01-08T03:10:58.528Z,101085.29
2019-01-08T03:13:27.831Z,101099.78
2019-01-08T03:15:57.060Z,101078.71
2019-01-08T03:18:26.295Z,101083.47
2019-01-08T03:20:55.576Z,101071.23
2019-01-08T03:23:24.881Z,101085.76
2019-01-08T03:25:54.268Z,101055.44
2019-01-08T03:28:23.493Z,101043.33
2019-01-08T03:30:52.792Z,101048.98
2019-01-08T03:33:22.067Z,101046.70
2019-01-08T03:35:51.326Z,101033.59
2019-01-08T03:38:20.583Z,101019.50
2019-01-08T03:40:49.866Z,101013.80
2019-01-08T03:43:19.116Z,101001.16
2019-01-08T03:45:48.432Z,101009.05
2019-01-08T03:48:17.695Z,100988.47
2019-01-08T03:50:47.001Z,100997.61
2019-01-08T03:53:16.274Z,100980.51
2019-01-08T03:55:45.617Z,100995.05
2019-01-08T03:58:14.887Z,101002.58
2019-01-08T04:00:44.186Z,100965.34
2019-01-08T04:03:13.451Z,100957.98
2019-01-08T04:05:42.698Z,100973.91
2019-01-08T04:08:12.046Z,100952.08
2019-01-08T04:10:41.468Z,100940.77
2019-01-08T04:13:10.720Z,100954.03
2019-01-08T04:15:39.996Z,100955.41
2019-01-08T04:18:09.264Z,100969.59
2019-01-08T04:20:38.576Z,100944.69
2019-01-08T04:23:07.829Z,100943.95
2019-01-08T04:25:37.124Z,100954.36
2019-01-08T04:28:06.379Z,101023.39
2019-01-08T04:30:35.654Z,100928.02
2019-01-08T04:33:05.040Z,100920.33
2019-01-08T04:35:34.298Z,100930.02
2019-01-08T04:38:03.594Z,100901.60
2019-01-08T04:40:32.832Z,100884.50
2019-01-08T04:43:02.094Z,100870.41
2019-01-08T04:45:31.379Z,100869.50
2019-01-08T04:48:00.715Z,100859.22
2019-01-08T04:50:30.000Z,100848.61
2019-01-08T04:52:59.337Z,100848.05
2019-01-08T04:55:28.632Z,100838.44
2019-01-08T04:57:57.940Z,100856.31
2019-01-08T05:00:27.182Z,100814.22
2019-01-08T05:02:56.538Z,100811.61
2019-01-08T05:05:25.788Z,100833.47
2019-01-08T05:07:55.066Z,100822.45
2019-01-08T05:10:24.346Z,100823.82
2019-01-08T05:12:53.629Z,100797.88
2019-01-08T05:15:22.967Z,100811.92
2019-01-08T05:17:52.236Z,100795.27
2019-01-08T05:20:21.513Z,100788.23
2019-01-08T05:22:52.303Z,100783.30
2019-01-08T05:25:21.487Z,100781.53
2019-01-08T05:27:50.806Z,100779.36
2019-01-08T05:30:20.117Z,100784.03
2019-01-08T05:32:49.418Z,100779.16
2019-01-08T05:35:18.746Z,100792.77
2019-01-08T05:37:48.059Z,100765.97
2019-01-08T05:40:17.396Z,100765.58
2019-01-08T05:42:46.706Z,100753.30
2019-01-08T05:45:15.984Z,100728.73
2019-01-08T05:47:45.325Z,100751.58
2019-01-08T05:50:14.625Z,100732.72
2019-01-08T05:52:43.891Z,100733.64
2019-01-08T05:55:13.128Z,100727.55
2019-01-08T05:57:42.499Z,100726.67
2019-01-08T06:00:16.335Z,100712.88
2019-01-08T06:02:41.077Z,100719.06
2019-01-08T06:05:10.328Z,100694.87
2019-01-08T06:07:39.627Z,100707.53
2019-01-08T06:10:09.590Z,100710.64
2019-01-08T06:12:38.851Z,100704.98
2019-01-08T06:15:08.096Z,100702.69
2019-01-08T06:17:37.431Z,100720.14
2019-01-08T06:20:06.924Z,100708.19
2019-01-08T06:22:36.183Z,100717.45
2019-01-08T06:25:05.641Z,100704.31
2019-01-08T06:27:34.924Z,100710.02
2019-01-08T06:30:04.532Z,100697.83
2019-01-08T06:32:33.913Z,100694.66
2019-01-08T06:35:03.248Z,100689.00
2019-01-08T06:37:32.491Z,100677.16
2019-01-08T06:40:01.836Z,100652.13
2019-01-08T06:42:31.105Z,100683.20
2019-01-08T06:45:00.397Z,100658.23
2019-01-08T06:47:30.304Z,100663.05
2019-01-08T06:49:59.083Z,100676.27
2019-01-08T06:52:28.424Z,100706.11
2019-01-08T06:54:57.745Z,100664.95
2019-01-08T06:57:27.006Z,100657.09
2019-01-08T06:59:56.359Z,100657.22
2019-01-08T07:02:25.649Z,100655.45
2019-01-08T07:04:54.913Z,100639.20
2019-01-08T07:07:24.196Z,100644.80
2019-01-08T07:09:53.529Z,100642.60
2019-01-08T07:12:22.769Z,100635.58
2019-01-08T07:14:52.040Z,100625.52
2019-01-08T07:17:21.308Z,100611.78
2019-01-08T07:19:50.765Z,100620.45
2019-01-08T07:22:20.141Z,100609.45
2019-01-08T07:24:49.439Z,100608.90
2019-01-08T07:27:18.694Z,100592.57
2019-01-08T07:29:47.985Z,100596.89
2019-01-08T07:32:17.268Z,100588.95
2019-01-08T07:34:46.622Z,100590.64
2019-01-08T07:37:16.009Z,100641.13
2019-01-08T07:39:45.352Z,100592.80
2019-01-08T07:42:14.783Z,100590.70
2019-01-08T07:44:44.039Z,100578.44
2019-01-08T07:47:13.321Z,100590.34
2019-01-08T07:49:42.581Z,100583.84
2019-01-08T07:52:11.967Z,100570.80
2019-01-08T07:54:41.265Z,100571.73
2019-01-08T07:57:10.559Z,100596.38
2019-01-08T07:59:39.886Z,100566.56
2019-01-08T08:02:09.255Z,100551.64
2019-01-08T08:04:38.574Z,100562.67
2019-01-08T08:07:07.884Z,100601.56
2019-01-08T08:09:37.197Z,100561.18
2019-01-08T08:12:06.475Z,100529.58
2019-01-08T08:14:35.793Z,100530.97
2019-01-08T08:17:05.031Z,100533.92
2019-01-08T08:19:34.265Z,100545.25
2019-01-08T08:22:03.598Z,100577.28
2019-01-08T08:24:32.875Z,100516.33
2019-01-08T08:27:02.199Z,100519.44
2019-01-08T08:29:31.589Z,100517.56
2019-01-08T08:32:00.903Z,100536.84
2019-01-08T08:34:30.287Z,100526.28
2019-01-08T08:36:59.548Z,100540.28
2019-01-08T08:39:28.799Z,100506.56
2019-01-08T08:41:58.074Z,100523.57
2019-01-08T08:44:27.383Z,100515.59
2019-01-08T08:46:56.822Z,100509.77
2019-01-08T08:49:26.101Z,100511.03
2019-01-08T08:51:55.376Z,100500.05
2019-01-08T08:54:24.648Z,100493.08
2019-01-08T08:56:54.015Z,100505.75
2019-01-08T08:59:23.261Z,100491.73
2019-01-08T09:01:52.603Z,100470.73
2019-01-08T09:04:21.921Z,100482.16
2019-01-08T09:06:51.288Z,100483.11
2019-01-08T09:09:20.631Z,100497.76
2019-01-08T09:11:49.904Z,100485.93
2019-01-08T09:14:19.194Z,100484.32
2019-01-08T09:16:48.455Z,100465.30
2019-01-08T09:19:17.871Z,100461.98
2019-01-08T09:21:47.165Z,100465.56
2019-01-08T09:24:16.479Z,100463.05
2019-01-08T09:26:45.780Z,100451.68
2019-01-08T09:29:15.071Z,100477.63
2019-01-08T09:31:44.365Z,100474.56
2019-01-08T09:34:13.705Z,100456.39
2019-01-08T09:36:43.022Z,100467.75
2019-01-08T09:39:12.325Z,100474.87
2019-01-08T09:41:41.627Z,100462.59
2019-01-08T09:44:10.885Z,100452.11
2019-01-08T09:46:40.156Z,100456.97
2019-01-08T09:49:09.541Z,100473.10
2019-01-08T09:51:38.796Z,100474.41
2019-01-08T09:54:08.100Z,100477.02
2019-01-08T09:56:37.425Z,100468.30
2019-01-08T09:59:06.730Z,100470.45
2019-01-08T10:01:36.045Z,100475.09
2019-01-08T10:04:05.286Z,100496.95
2019-01-08T10:06:34.584Z,100467.97
2019-01-08T10:09:04.424Z,100523.52
2019-01-08T10:11:33.793Z,100498.41
2019-01-08T10:14:03.158Z,100499.25
2019-01-08T10:16:32.451Z,100482.57
2019-01-08T10:19:01.705Z,100484.31
2019-01-08T10:21:31.017Z,100483.73
2019-01-08T10:24:02.030Z,100496.86
2019-01-08T10:26:29.676Z,100473.95
2019-01-08T10:28:59.052Z,100494.41
2019-01-08T10:31:32.581Z,100507.95
2019-01-08T10:33:57.695Z,100501.06
2019-01-08T10:36:26.901Z,100515.06
2019-01-08T10:38:56.188Z,100527.06
2019-01-08T10:41:25.431Z,100499.41
2019-01-08T10:43:54.719Z,100499.20
2019-01-08T10:46:23.979Z,100545.02
2019-01-08T10:48:53.249Z,100504.69
2019-01-08T10:51:22.559Z,100477.07
2019-01-08T10:53:51.888Z,100485.69
2019-01-08T10:56:21.206Z,100464.47
2019-01-08T10:58:50.483Z,100481.64
2019-01-08T11:01:20.186Z,100475.48
2019-01-08T11:03:49.625Z,100485.30
2019-01-08T11:06:18.969Z,100476.19
2019-01-08T11:08:48.321Z,100501.23
2019-01-08T11:11:17.584Z,100463.47
2019-01-08T11:13:46.901Z,100469.01
2019-01-08T11:16:16.276Z,100468.38
2019-01-08T11:18:45.638Z,100462.34
2019-01-08T11:21:14.933Z,100463.08
2019-01-08T11:23:44.703Z,100442.13
2019-01-08T11:26:13.952Z,100448.75
2019-01-08T11:28:43.337Z,100433.94
2019-01-08T11:31:12.607Z,100442.94
2019-01-08T11:33:41.878Z,100425.27
2019-01-08T11:36:11.155Z,100430.41
2019-01-08T11:38:40.453Z,100427.91
2019-01-08T11:41:09.699Z,100428.81
2019-01-08T11:43:38.965Z,100430.62
2019-01-08T11:46:08.297Z,100428.91
2019-01-08T11:48:37.569Z,100473.70
2019-01-08T11:52:10.972Z,115400.88
2019-01-08T12:10:59.797Z,115400.88
2019-01-08T12:16:04.119Z,115400.88
2019-01-08T12:19:54.201Z,115400.88
2019-01-08T12:34:03.387Z,115400.88
2019-01-08T12:36:43.794Z,115400.88
2019-01-08T12:40:46.492Z,115400.88
2019-01-08T13:29:44.661Z,115400.88
2019-01-08T14:43:20.544Z,115400.88
2019-01-08T14:51:14.965Z,115400.88
2019-01-08T15:06:57.785Z,115400.88
2019-01-08T15:09:29.533Z,115400.88
2019-01-08T15:23:18.687Z,115400.88
2019-01-08T15:55:46.662Z,115400.88
2019-01-08T16:09:03.715Z,115400.88
2019-01-08T16:12:58.886Z,115400.88
2019-01-08T16:31:56.255Z,115400.88
2019-01-08T16:35:16.348Z,115400.88
2019-01-08T16:47:06.110Z,100579.89
2019-01-08T16:49:35.416Z,100583.23
2019-01-08T16:52:04.707Z,100575.27
2019-01-08T16:54:34.046Z,100575.16
2019-01-08T16:57:03.305Z,100574.75
2019-01-08T16:59:32.626Z,100585.86
2019-01-08T17:02:01.918Z,100583.63
2019-01-08T17:04:31.235Z,100604.25
2019-01-08T17:07:00.542Z,100582.02
2019-01-08T17:09:29.926Z,100610.16
2019-01-08T17:11:59.244Z,100599.72
2019-01-08T17:14:28.563Z,100606.78
2019-01-08T17:16:57.842Z,100605.55
2019-01-08T17:19:27.105Z,100631.78
2019-01-08T17:21:56.585Z,100617.80
2019-01-08T17:24:25.878Z,100615.30
2019-01-08T17:26:55.147Z,100602.66
2019-01-08T17:29:24.479Z,100613.61
2019-01-08T17:31:53.751Z,100628.08
2019-01-08T17:34:23.082Z,100626.73
2019-01-08T17:36:52.372Z,100616.17
2019-01-08T17:39:21.737Z,100630.59
2019-01-08T17:41:51.029Z,100630.13
2019-01-08T17:44:20.529Z,100645.40
2019-01-08T17:46:50.027Z,100645.82
2019-01-08T17:49:19.365Z,100655.84
2019-01-08T17:51:48.672Z,100648.43
2019-01-08T17:54:18.103Z,100663.33
2019-01-08T17:56:47.413Z,100659.44
2019-01-08T17:59:18.893Z,100659.85
2019-01-08T18:01:56.908Z,100662.23
2019-01-08T18:04:26.153Z,100665.67
2019-01-08T18:06:55.589Z,100669.14
2019-01-08T18:09:24.944Z,100667.42
2019-01-08T18:11:54.389Z,100676.61
2019-01-08T18:14:23.697Z,100676.22
2019-01-08T18:16:53.359Z,100668.28
2019-01-08T18:19:22.588Z,100693.70
2019-01-08T18:21:51.878Z,100676.66
2019-01-08T18:24:21.178Z,100670.52
2019-01-08T18:26:50.862Z,100668.30
2019-01-08T18:29:20.237Z,100683.16
2019-01-08T18:31:49.507Z,100671.81
2019-01-08T18:34:18.995Z,100674.44
2019-01-08T18:36:48.249Z,100683.12
2019-01-08T18:39:17.762Z,100687.15
2019-01-08T18:41:48.425Z,100692.34
2019-01-08T18:44:17.838Z,100687.11
2019-01-08T18:46:47.111Z,100709.09
2019-01-08T18:49:19.094Z,100695.94
2019-01-08T18:51:48.695Z,100683.73
2019-01-08T18:54:18.345Z,100688.13
2019-01-08T18:56:47.778Z,100686.81
2019-01-08T18:59:17.062Z,100687.22
2019-01-08T19:01:46.315Z,100688.17
2019-01-08T19:04:15.723Z,100694.68
2019-01-08T19:06:45.037Z,100676.83
2019-01-08T19:09:26.052Z,100686.92
2019-01-08T19:11:55.752Z,100689.59
2019-01-08T19:14:28.234Z,100692.38
2019-01-08T19:16:57.537Z,100702.41
2019-01-08T19:19:26.905Z,100691.52
2019-01-08T19:21:56.144Z,100686.23
2019-01-08T19:24:25.428Z,100701.10
2019-01-08T19:26:54.703Z,100687.59
2019-01-08T19:29:24.223Z,100696.36
2019-01-08T19:31:53.512Z,100691.57
2019-01-08T19:34:22.809Z,100703.52
2019-01-08T19:36:52.234Z,100708.76
2019-01-08T19:39:21.740Z,100710.48
2019-01-08T19:41:51.220Z,100724.48
2019-01-08T19:44:20.719Z,100739.54
2019-01-08T19:46:50.246Z,100736.10
2019-01-08T19:49:19.683Z,100732.67
2019-01-08T19:51:49.034Z,100745.62
2019-01-08T19:54:18.355Z,100726.17
2019-01-08T19:56:47.633Z,100747.23
2019-01-08T19:59:17.020Z,100716.64
2019-01-08T20:01:46.525Z,100721.42
2019-01-08T20:04:17.985Z,100715.30
2019-01-08T20:06:45.517Z,100719.22
2019-01-08T20:09:14.829Z,100710.05
2019-01-08T20:11:44.377Z,100745.81
2019-01-08T20:14:13.663Z,100713.50
2019-01-08T20:16:43.011Z,100720.94
2019-01-08T20:19:12.627Z,100711.78
2019-01-08T20:21:42.336Z,100727.94
2019-01-08T20:24:15.833Z,100706.55
2019-01-08T20:26:45.397Z,100727.48
2019-01-08T20:29:23.123Z,100730.55
2019-01-08T20:31:49.901Z,100722.25
2019-01-08T20:34:26.601Z,100724.00
2019-01-08T20:36:48.729Z,100722.70
2019-01-08T20:39:18.040Z,100730.06
2019-01-08T20:41:47.379Z,100725.64
2019-01-08T20:44:16.669Z,100719.14
2019-01-08T20:46:45.947Z,100734.81
2019-01-08T20:49:15.275Z,100727.86
2019-01-08T20:51:44.601Z,100748.84
2019-01-08T20:54:13.904Z,100731.86
2019-01-08T20:56:43.248Z,100730.22
2019-01-08T20:59:12.556Z,100722.36
2019-01-08T21:01:41.828Z,100729.58
2019-01-08T21:04:11.159Z,100745.41
2019-01-08T21:06:40.469Z,100747.12
2019-01-08T21:09:09.767Z,100751.45
2019-01-08T21:11:39.147Z,100740.95
2019-01-08T21:14:08.495Z,100728.14
2019-01-08T21:16:37.837Z,100742.46
2019-01-08T21:19:07.119Z,100738.25
2019-01-08T21:21:39.797Z,100758.30
2019-01-08T21:24:09.109Z,100732.89
2019-01-08T21:26:38.399Z,100734.12
2019-01-08T21:29:07.697Z,100797.88
2019-01-08T21:31:37.027Z,100748.07
2019-01-08T21:34:06.310Z,100743.70
2019-01-08T21:36:35.631Z,100739.31
2019-01-08T21:39:06.308Z,100748.89
2019-01-08T21:41:38.857Z,100752.91
2019-01-08T21:44:05.015Z,100752.37
2019-01-08T21:46:34.365Z,100755.56
2019-01-08T21:49:03.737Z,100756.83
2019-01-08T21:51:35.657Z,100748.52
2019-01-08T21:54:05.238Z,100757.66
2019-01-08T21:56:34.542Z,100769.44
2019-01-08T21:59:03.869Z,100797.84
2019-01-08T22:01:33.108Z,100769.06
2019-01-08T22:04:02.528Z,100769.48
2019-01-08T22:06:31.945Z,100797.39
2019-01-08T22:09:01.300Z,100795.27
2019-01-08T22:11:30.682Z,100798.78
2019-01-08T22:13:59.995Z,100789.61
2019-01-08T22:16:29.277Z,100798.41
2019-01-08T22:18:58.583Z,100801.73
2019-01-08T22:21:27.845Z,100804.39
2019-01-08T22:23:57.154Z,100796.58
2019-01-08T22:26:26.431Z,100806.67
2019-01-08T22:28:55.738Z,100793.13
2019-01-08T22:31:24.999Z,100805.82
2019-01-08T22:33:54.323Z,100694.97
2019-01-08T22:36:23.622Z,100790.22
2019-01-08T22:38:52.899Z,100806.37
2019-01-08T22:41:22.231Z,100804.17
2019-01-08T22:43:51.541Z,100807.65
2019-01-08T22:46:20.921Z,100822.02
2019-01-08T22:48:50.307Z,100802.45
2019-01-08T22:51:19.665Z,100805.00
2019-01-08T22:53:48.995Z,100802.83
2019-01-08T22:56:18.293Z,100804.51
2019-01-08T22:58:47.535Z,100807.50
2019-01-08T23:01:20.633Z,100813.15
2019-01-08T23:03:49.937Z,100811.36
2019-01-08T23:06:19.262Z,100813.52
2019-01-08T23:08:48.569Z,100809.14
2019-01-08T23:11:17.830Z,100807.38
2019-01-08T23:13:47.196Z,100814.80
2019-01-08T23:16:16.480Z,100803.86
2019-01-08T23:18:45.809Z,100804.72
2019-01-08T23:21:15.148Z,100808.24
2019-01-08T23:23:44.481Z,100810.91
2019-01-08T23:26:13.727Z,100799.56
2019-01-08T23:28:43.146Z,100831.00
2019-01-08T23:31:12.440Z,100816.14
2019-01-08T23:33:41.811Z,100814.38
2019-01-08T23:36:11.097Z,100814.42
2019-01-08T23:38:40.391Z,100808.77
2019-01-08T23:41:09.668Z,100812.70
2019-01-08T23:43:38.970Z,100806.64
2019-01-08T23:46:08.237Z,100818.88
2019-01-08T23:48:37.548Z,100821.91
2019-01-08T23:51:06.839Z,100821.53
2019-01-08T23:53:39.021Z,100831.56
2019-01-08T23:56:09.123Z,100813.67
2019-01-08T23:58:38.424Z,100819.77
